Time;durP1;ratioP1;P1;durP2;ratioP2;P2;SDS_P1;SDS_P2;PMS_P1;PMS_P2;Temp;Humidity;BMP_temperature;BMP_pressure;BME280_temperature;BME280_humidity;BME280_pressure;Samples;Min_cycle;Max_cycle;Signal;HPM_P1;HPM_P2
2021/05/16 00:00:08;;;;;;;8.23;2.40;;;11.00;99.90;;;;;;5091229;28;20434;-71
2021/05/16 00:02:54;;;;;;;5.97;2.07;;;11.10;99.90;;;;;;5087576;28;20450;-70
2021/05/16 00:05:40;;;;;;;4.13;2.07;;;11.10;99.90;;;;;;5083389;28;20636;-71
2021/05/16 00:08:25;;;;;;;5.33;1.70;;;11.10;99.90;;;;;;5091406;28;20455;-71
2021/05/16 00:11:10;;;;;;;3.60;1.57;;;11.10;99.90;;;;;;5079800;28;20543;-71
2021/05/16 00:13:56;;;;;;;4.17;1.70;;;11.20;99.90;;;;;;5083208;28;20989;-71
2021/05/16 00:16:41;;;;;;;5.70;1.80;;;11.30;99.90;;;;;;5085196;28;21017;-71
2021/05/16 00:19:27;;;;;;;4.57;1.80;;;11.30;99.90;;;;;;5086792;28;20519;-72
2021/05/16 00:22:13;;;;;;;9.83;1.83;;;11.30;99.90;;;;;;5090864;28;20433;-72
2021/05/16 00:24:58;;;;;;;7.53;2.43;;;11.30;99.90;;;;;;5085251;28;20528;-71
2021/05/16 00:27:44;;;;;;;5.50;1.73;;;11.20;99.90;;;;;;5079865;28;20441;-71
2021/05/16 00:30:30;;;;;;;3.67;1.70;;;11.20;99.90;;;;;;5083801;28;20429;-71
2021/05/16 00:33:15;;;;;;;7.83;2.33;;;11.30;99.90;;;;;;5089082;28;20648;-71
2021/05/16 00:36:01;;;;;;;3.27;1.80;;;11.30;99.90;;;;;;5084832;28;20504;-72
2021/05/16 00:38:46;;;;;;;4.80;2.00;;;11.20;99.90;;;;;;5084249;28;20423;-71
2021/05/16 00:41:31;;;;;;;5.97;2.57;;;11.20;99.90;;;;;;5084890;28;20680;-71
2021/05/16 00:44:17;;;;;;;3.87;1.80;;;11.20;99.90;;;;;;5085711;28;20465;-70
2021/05/16 00:47:02;;;;;;;4.27;1.87;;;11.10;99.90;;;;;;5085787;28;20549;-71
2021/05/16 00:49:46;;;;;;;6.17;1.87;;;11.00;99.90;;;;;;5084802;28;22654;-70
2021/05/16 00:52:33;;;;;;;6.67;2.43;;;10.80;99.90;;;;;;5079647;28;20441;-70
2021/05/16 00:55:20;;;;;;;4.60;1.90;;;10.80;99.90;;;;;;5090007;28;20445;-72
2021/05/16 00:58:06;;;;;;;4.07;1.50;;;10.80;99.90;;;;;;5080477;28;20958;-70
2021/05/16 01:00:52;;;;;;;6.83;2.07;;;10.70;99.90;;;;;;5079623;28;20429;-72
2021/05/16 01:03:37;;;;;;;6.20;2.20;;;10.70;99.90;;;;;;5078736;28;20504;-71
2021/05/16 01:06:22;;;;;;;4.77;1.87;;;10.80;99.90;;;;;;5079354;28;20477;-71
2021/05/16 01:09:09;;;;;;;7.63;1.83;;;10.70;99.90;;;;;;5086611;28;20433;-72
2021/05/16 01:11:54;;;;;;;2.80;1.40;;;10.80;99.90;;;;;;5089678;28;20446;-72
2021/05/16 01:14:43;;;;;;;5.43;1.87;;;10.80;99.90;;;;;;5078424;28;20484;-71
2021/05/16 01:17:28;;;;;;;4.47;1.83;;;10.80;99.90;;;;;;5074260;28;20805;-71
2021/05/16 01:20:15;;;;;;;4.30;1.80;;;10.80;99.90;;;;;;5086913;28;20461;-72
2021/05/16 01:23:04;;;;;;;4.33;1.63;;;10.80;99.90;;;;;;5082116;28;20444;-71
2021/05/16 01:25:50;;;;;;;4.13;1.60;;;10.80;99.90;;;;;;5081145;28;20471;-71
2021/05/16 01:28:35;;;;;;;6.33;2.27;;;10.90;99.90;;;;;;5082075;28;20449;-71
2021/05/16 01:31:20;;;;;;;4.40;1.90;;;10.80;99.90;;;;;;5087018;28;21036;-71
2021/05/16 01:34:05;;;;;;;4.60;2.20;;;10.80;99.90;;;;;;5082237;28;20430;-71
2021/05/16 01:36:50;;;;;;;6.87;1.40;;;10.80;99.90;;;;;;5088402;28;20450;-72
2021/05/16 01:39:37;;;;;;;2.70;1.73;;;10.80;99.90;;;;;;5073086;28;20534;-71
2021/05/16 01:42:24;;;;;;;7.03;2.07;;;10.80;99.90;;;;;;5086456;28;20515;-71
2021/05/16 01:45:12;;;;;;;8.90;2.63;;;10.80;99.90;;;;;;5085626;28;20440;-71
2021/05/16 01:47:58;;;;;;;5.93;2.50;;;10.90;99.90;;;;;;5079874;28;20458;-72
2021/05/16 01:50:43;;;;;;;4.50;2.43;;;11.00;99.90;;;;;;5085141;28;20429;-70
2021/05/16 01:53:29;;;;;;;5.80;2.30;;;11.10;99.90;;;;;;5082453;28;20536;-71
2021/05/16 01:56:21;;;;;;;4.33;2.30;;;11.10;99.90;;;;;;5078670;28;20454;-70
2021/05/16 01:59:06;;;;;;;3.97;2.27;;;11.10;99.90;;;;;;5082198;28;20413;-72
2021/05/16 02:01:51;;;;;;;5.27;2.00;;;11.00;99.90;;;;;;5078341;28;20428;-71
2021/05/16 02:04:37;;;;;;;14.27;2.80;;;11.00;99.90;;;;;;5087591;28;20993;-71
2021/05/16 02:07:22;;;;;;;9.27;2.20;;;11.00;99.90;;;;;;5079409;28;20452;-71
2021/05/16 02:10:09;;;;;;;8.63;3.20;;;10.90;99.90;;;;;;5083484;28;20600;-71
2021/05/16 02:12:55;;;;;;;4.97;1.90;;;10.90;99.90;;;;;;5090090;28;20456;-71
2021/05/16 02:15:40;;;;;;;3.87;1.73;;;11.00;99.90;;;;;;5085693;28;20565;-71
2021/05/16 02:18:25;;;;;;;3.63;1.73;;;10.90;99.90;;;;;;5081594;28;20458;-71
2021/05/16 02:21:11;;;;;;;7.27;1.93;;;10.90;99.90;;;;;;5082875;28;20427;-71
2021/05/16 02:23:56;;;;;;;4.30;1.40;;;10.90;99.90;;;;;;5080535;28;20481;-72
2021/05/16 02:26:41;;;;;;;6.87;1.90;;;11.00;99.90;;;;;;5083140;28;20468;-71
2021/05/16 02:29:27;;;;;;;3.13;1.67;;;11.00;99.90;;;;;;5083182;28;20436;-72
2021/05/16 02:32:12;;;;;;;5.73;1.80;;;11.10;99.90;;;;;;5089459;28;20865;-71
2021/05/16 02:34:57;;;;;;;5.17;1.60;;;11.10;99.90;;;;;;5092345;28;20469;-71
2021/05/16 02:37:43;;;;;;;3.70;1.60;;;11.20;99.90;;;;;;5086973;28;20910;-71
2021/05/16 02:40:28;;;;;;;4.03;1.30;;;11.20;99.90;;;;;;5083487;28;20864;-71
2021/05/16 02:43:13;;;;;;;2.30;1.40;;;11.20;99.90;;;;;;5092591;28;20437;-72
2021/05/16 02:46:00;;;;;;;6.17;2.10;;;11.30;99.90;;;;;;5089216;28;20465;-71
2021/05/16 02:48:44;;;;;;;5.07;1.70;;;11.20;99.90;;;;;;5079623;28;21173;-72
2021/05/16 02:51:30;;;;;;;10.40;2.70;;;11.10;99.90;;;;;;5090379;28;20447;-71
2021/05/16 02:54:15;;;;;;;3.80;1.93;;;11.10;99.90;;;;;;5092099;28;20491;-71
2021/05/16 02:57:00;;;;;;;3.60;2.17;;;11.00;99.90;;;;;;5088840;28;20986;-71
2021/05/16 02:59:45;;;;;;;5.93;2.10;;;11.10;99.90;;;;;;5090334;28;20445;-71
2021/05/16 03:02:31;;;;;;;4.73;2.90;;;11.30;99.90;;;;;;5086070;28;20477;-71
2021/05/16 03:05:16;;;;;;;5.60;2.87;;;11.10;99.90;;;;;;5068110;22;20501;-69
2021/05/16 03:08:02;;;;;;;5.30;3.30;;;11.10;99.90;;;;;;5041211;28;20519;-70
2021/05/16 03:10:47;;;;;;;7.30;3.20;;;11.10;99.90;;;;;;5047276;28;20455;-69
2021/05/16 03:13:33;;;;;;;8.30;3.33;;;11.20;99.90;;;;;;5045141;28;20441;-70
2021/05/16 03:16:17;;;;;;;4.03;2.27;;;11.10;99.90;;;;;;5049317;28;20527;-68
2021/05/16 03:19:04;;;;;;;6.13;2.63;;;11.20;99.90;;;;;;5046583;28;20484;-70
2021/05/16 03:21:49;;;;;;;4.53;3.30;;;11.30;99.90;;;;;;5052245;28;20434;-69
2021/05/16 03:24:36;;;;;;;5.70;2.93;;;11.30;99.90;;;;;;5052372;28;20467;-70
2021/05/16 03:27:21;;;;;;;7.03;2.83;;;11.30;99.90;;;;;;5042215;28;20471;-70
2021/05/16 03:30:09;;;;;;;4.57;2.83;;;11.30;99.90;;;;;;5041508;28;20963;-69
2021/05/16 03:32:54;;;;;;;8.70;2.77;;;11.20;99.90;;;;;;5051106;28;20448;-70
2021/05/16 03:35:40;;;;;;;4.50;2.70;;;11.20;99.90;;;;;;5047552;28;20459;-70
2021/05/16 03:38:25;;;;;;;5.33;2.63;;;11.30;99.90;;;;;;5051359;28;20851;-70
2021/05/16 03:41:10;;;;;;;8.27;4.07;;;11.30;99.90;;;;;;5050986;28;20448;-69
2021/05/16 03:43:55;;;;;;;6.43;2.83;;;11.30;99.90;;;;;;5048642;28;20467;-70
2021/05/16 03:46:41;;;;;;;6.50;3.07;;;11.30;99.90;;;;;;5047278;28;21269;-70
2021/05/16 03:49:26;;;;;;;4.50;2.40;;;11.30;99.90;;;;;;5048961;28;20475;-70
2021/05/16 03:52:13;;;;;;;4.90;2.90;;;11.30;99.90;;;;;;5043548;28;20480;-70
2021/05/16 03:54:58;;;;;;;8.03;3.40;;;11.30;99.90;;;;;;5045521;28;20445;-70
2021/05/16 03:57:43;;;;;;;4.33;2.77;;;11.30;99.90;;;;;;5046778;28;20438;-69
2021/05/16 04:00:28;;;;;;;5.37;2.90;;;11.30;99.90;;;;;;5050362;28;20785;-70
2021/05/16 04:03:13;;;;;;;4.63;2.47;;;11.30;99.90;;;;;;5048142;28;20405;-70
2021/05/16 04:05:58;;;;;;;6.20;2.83;;;11.30;99.90;;;;;;5049899;28;20839;-70
2021/05/16 04:08:44;;;;;;;5.73;2.10;;;11.30;99.90;;;;;;5049316;28;20455;-70
2021/05/16 04:11:29;;;;;;;5.10;2.80;;;11.30;99.90;;;;;;5044353;28;20435;-69
2021/05/16 04:14:16;;;;;;;6.13;2.37;;;11.40;99.90;;;;;;5045801;28;20480;-70
2021/05/16 04:17:01;;;;;;;4.30;2.43;;;11.40;99.90;;;;;;5050824;28;20494;-68
2021/05/16 04:19:46;;;;;;;9.23;2.90;;;11.40;99.90;;;;;;5048247;28;20924;-70
2021/05/16 04:22:32;;;;;;;8.90;2.97;;;11.30;99.90;;;;;;5038517;28;20447;-70
2021/05/16 04:25:18;;;;;;;5.77;2.50;;;11.20;99.90;;;;;;5045926;28;20513;-70
2021/05/16 04:28:03;;;;;;;4.90;2.50;;;11.20;99.90;;;;;;5050119;28;21015;-70
2021/05/16 04:30:48;;;;;;;5.10;2.87;;;11.10;99.90;;;;;;5049357;28;20448;-69
2021/05/16 04:33:33;;;;;;;4.40;2.47;;;11.10;99.90;;;;;;5042171;28;20531;-70
2021/05/16 04:36:18;;;;;;;7.17;2.80;;;11.10;99.90;;;;;;5050916;28;20432;-70
2021/05/16 04:39:04;;;;;;;6.07;2.50;;;11.10;99.90;;;;;;5050147;28;20501;-70
2021/05/16 04:41:50;;;;;;;7.80;3.33;;;11.00;99.90;;;;;;5049806;28;20452;-69
2021/05/16 04:44:35;;;;;;;6.20;2.97;;;11.00;99.90;;;;;;5043090;28;20463;-70
2021/05/16 04:47:20;;;;;;;5.90;2.60;;;11.00;99.90;;;;;;5045803;28;20471;-70
2021/05/16 04:50:06;;;;;;;7.30;2.33;;;10.90;99.90;;;;;;5047655;28;20456;-70
2021/05/16 04:52:51;;;;;;;10.73;2.90;;;11.00;99.90;;;;;;5047528;28;20466;-70
2021/05/16 04:55:37;;;;;;;6.03;2.57;;;11.10;99.90;;;;;;5048918;28;20492;-70
2021/05/16 04:58:23;;;;;;;3.90;2.80;;;11.20;99.90;;;;;;5036327;28;20513;-70
2021/05/16 05:01:08;;;;;;;8.03;2.80;;;11.20;99.90;;;;;;5042173;28;20442;-70
2021/05/16 05:03:54;;;;;;;8.80;2.60;;;11.20;99.90;;;;;;5048804;28;20545;-70
2021/05/16 05:06:39;;;;;;;7.53;2.63;;;11.30;99.90;;;;;;5049519;28;20517;-69
2021/05/16 05:09:24;;;;;;;4.90;2.90;;;11.40;99.90;;;;;;5044811;28;20467;-69
2021/05/16 05:12:10;;;;;;;5.80;2.20;;;11.50;99.90;;;;;;5042991;28;20455;-69
2021/05/16 05:14:55;;;;;;;12.47;4.60;;;11.50;99.90;;;;;;5049742;28;20437;-69
2021/05/16 05:17:41;;;;;;;7.93;2.83;;;11.40;99.90;;;;;;5043955;28;20440;-70
2021/05/16 05:20:26;;;;;;;8.90;3.23;;;11.40;99.90;;;;;;5049501;28;20456;-69
2021/05/16 05:23:11;;;;;;;8.23;2.80;;;11.40;99.90;;;;;;5046367;28;20459;-69
2021/05/16 05:25:58;;;;;;;5.50;3.27;;;11.50;99.90;;;;;;5043736;28;20460;-70
2021/05/16 05:28:43;;;;;;;8.70;3.40;;;11.40;99.90;;;;;;5043755;28;20477;-70
2021/05/16 05:31:29;;;;;;;7.10;3.00;;;11.40;99.90;;;;;;5041701;28;20447;-69
2021/05/16 05:34:14;;;;;;;4.57;2.43;;;11.40;99.90;;;;;;5045100;28;20564;-69
2021/05/16 05:36:59;;;;;;;4.43;2.50;;;11.40;99.90;;;;;;5045721;28;20445;-68
2021/05/16 05:39:44;;;;;;;6.17;2.87;;;11.30;99.90;;;;;;5045208;28;20795;-70
2021/05/16 05:42:30;;;;;;;6.73;3.40;;;11.30;99.90;;;;;;5041387;28;20471;-69
2021/05/16 05:45:15;;;;;;;4.20;2.60;;;11.30;99.90;;;;;;5048751;28;20475;-69
2021/05/16 05:48:01;;;;;;;8.90;2.87;;;11.20;99.90;;;;;;5041511;28;20483;-69
2021/05/16 05:50:47;;;;;;;5.00;2.70;;;11.20;99.90;;;;;;5043561;28;20455;-70
2021/05/16 05:53:33;;;;;;;7.97;3.03;;;11.30;99.90;;;;;;5052370;28;20474;-69
2021/05/16 05:56:18;;;;;;;5.43;3.00;;;11.20;99.90;;;;;;5052935;28;20502;-69
2021/05/16 05:59:04;;;;;;;5.17;2.80;;;11.30;99.90;;;;;;5052179;28;20474;-70
2021/05/16 06:01:49;;;;;;;4.80;2.80;;;11.30;99.90;;;;;;5053370;28;20455;-70
2021/05/16 06:04:35;;;;;;;7.70;3.83;;;11.40;99.90;;;;;;5055067;28;20564;-70
2021/05/16 06:07:20;;;;;;;6.63;2.60;;;11.50;99.90;;;;;;5052176;28;20557;-69
2021/05/16 06:10:06;;;;;;;9.33;3.27;;;11.50;99.90;;;;;;5051347;28;21011;-70
2021/05/16 06:12:52;;;;;;;6.40;2.70;;;11.50;99.90;;;;;;5051393;28;20914;-70
2021/05/16 06:15:37;;;;;;;4.57;2.53;;;11.50;99.90;;;;;;5047829;28;20467;-70
2021/05/16 06:18:23;;;;;;;4.50;3.40;;;11.50;99.90;;;;;;5050611;28;20435;-70
2021/05/16 06:21:11;;;;;;;11.50;2.80;;;11.60;99.90;;;;;;5052267;28;20486;-70
2021/05/16 06:24:05;;;;;;;7.80;2.90;;;11.50;99.90;;;;;;5042172;28;20464;-70
2021/05/16 06:26:51;;;;;;;7.37;3.90;;;11.60;99.90;;;;;;5047757;28;20526;-70
2021/05/16 06:29:36;;;;;;;5.07;2.83;;;11.60;99.90;;;;;;5046642;28;20443;-70
2021/05/16 06:32:21;;;;;;;8.83;3.20;;;11.50;99.90;;;;;;5049406;28;20819;-69
2021/05/16 06:35:07;;;;;;;10.03;4.37;;;11.50;99.90;;;;;;5054115;28;22273;-71
2021/05/16 06:37:53;;;;;;;14.10;6.90;;;11.50;99.90;;;;;;5048039;28;20509;-70
2021/05/16 06:40:38;;;;;;;6.80;4.07;;;11.60;99.90;;;;;;5044864;28;20443;-70
2021/05/16 06:43:23;;;;;;;4.93;3.17;;;11.60;99.90;;;;;;5047307;28;20458;-69
2021/05/16 06:46:08;;;;;;;11.23;3.00;;;11.60;99.90;;;;;;5049754;28;20560;-70
2021/05/16 06:48:54;;;;;;;8.37;2.73;;;11.60;99.90;;;;;;5051164;28;20521;-69
2021/05/16 06:51:39;;;;;;;7.97;2.80;;;11.60;99.90;;;;;;5044313;28;21209;-70
2021/05/16 06:54:25;;;;;;;6.70;3.20;;;11.60;99.90;;;;;;5049454;28;20479;-70
2021/05/16 06:57:10;;;;;;;11.27;4.53;;;11.70;99.90;;;;;;5044984;28;20453;-70
2021/05/16 06:59:55;;;;;;;8.43;3.30;;;11.80;99.90;;;;;;5052860;28;20486;-69
2021/05/16 07:02:40;;;;;;;6.73;2.90;;;11.90;99.90;;;;;;5043056;28;20986;-70
2021/05/16 07:05:25;;;;;;;5.20;3.00;;;11.90;99.90;;;;;;5049683;28;20883;-70
2021/05/16 07:08:11;;;;;;;9.87;3.73;;;12.00;99.90;;;;;;5053026;28;20990;-70
2021/05/16 07:10:57;;;;;;;9.70;3.67;;;12.10;99.90;;;;;;5053224;28;20466;-71
2021/05/16 07:13:42;;;;;;;3.30;2.37;;;12.20;99.90;;;;;;5049085;28;20471;-70
2021/05/16 07:16:27;;;;;;;7.63;2.40;;;12.20;99.90;;;;;;5047526;28;20520;-70
2021/05/16 07:19:12;;;;;;;10.90;2.43;;;12.30;99.90;;;;;;5041708;28;20468;-69
2021/05/16 07:21:57;;;;;;;6.07;2.40;;;12.10;99.90;;;;;;5050387;28;21925;-70
2021/05/16 07:24:43;;;;;;;15.93;2.77;;;12.10;99.90;;;;;;5047906;28;20510;-70
2021/05/16 07:27:29;;;;;;;5.97;2.97;;;12.10;99.90;;;;;;5048097;28;20468;-70
2021/05/16 07:30:15;;;;;;;7.70;3.17;;;12.20;99.90;;;;;;5050805;28;20499;-71
2021/05/16 07:33:00;;;;;;;8.47;3.40;;;12.10;99.90;;;;;;5048978;28;20458;-70
2021/05/16 07:35:45;;;;;;;8.40;2.73;;;12.20;99.90;;;;;;5049014;28;20469;-69
2021/05/16 07:38:30;;;;;;;8.17;3.50;;;12.30;99.90;;;;;;5045129;28;20503;-70
2021/05/16 07:41:15;;;;;;;10.43;3.43;;;12.30;99.90;;;;;;5050738;28;20447;-69
2021/05/16 07:44:01;;;;;;;6.73;2.43;;;12.50;99.90;;;;;;5049204;28;20839;-70
2021/05/16 07:46:46;;;;;;;6.87;2.10;;;12.60;99.90;;;;;;5050021;28;20483;-70
2021/05/16 07:49:31;;;;;;;4.20;2.00;;;12.70;99.90;;;;;;5050716;28;20448;-68
2021/05/16 07:52:16;;;;;;;5.27;2.27;;;12.90;99.90;;;;;;5048387;28;20803;-69
2021/05/16 07:55:02;;;;;;;12.87;2.67;;;12.90;99.90;;;;;;5048864;28;20483;-68
2021/05/16 07:57:49;;;;;;;4.07;1.70;;;12.90;99.90;;;;;;5045893;28;21019;-68
2021/05/16 08:00:35;;;;;;;6.00;2.20;;;13.10;99.90;;;;;;5047618;28;20455;-69
2021/05/16 08:03:20;;;;;;;6.30;1.90;;;13.20;99.90;;;;;;5050236;28;20533;-69
2021/05/16 08:06:05;;;;;;;4.53;1.83;;;13.30;99.90;;;;;;5052324;28;20417;-69
2021/05/16 08:08:50;;;;;;;5.27;2.00;;;13.50;99.90;;;;;;5044019;28;20504;-68
2021/05/16 08:11:36;;;;;;;6.57;2.20;;;13.70;99.90;;;;;;5050188;28;20552;-68
2021/05/16 08:14:21;;;;;;;4.20;1.97;;;13.80;99.90;;;;;;5048685;28;20470;-69
2021/05/16 08:17:07;;;;;;;5.03;1.77;;;13.80;99.90;;;;;;5045359;28;20414;-68
2021/05/16 08:19:52;;;;;;;8.60;2.03;;;13.90;99.90;;;;;;5049492;28;20994;-68
2021/05/16 08:22:38;;;;;;;7.87;2.20;;;14.00;99.90;;;;;;5046000;28;20459;-69
2021/05/16 08:25:24;;;;;;;6.43;2.17;;;14.00;99.90;;;;;;5051407;28;20444;-69
2021/05/16 08:28:10;;;;;;;7.93;3.13;;;14.00;99.90;;;;;;5050860;28;20608;-69
2021/05/16 08:30:55;;;;;;;9.57;2.47;;;13.90;99.90;;;;;;5046421;28;20453;-68
2021/05/16 08:33:41;;;;;;;8.60;2.30;;;14.00;99.90;;;;;;5043312;28;20455;-68
2021/05/16 08:36:26;;;;;;;7.77;2.47;;;14.00;99.90;;;;;;5051449;28;20470;-69
2021/05/16 08:39:11;;;;;;;8.80;2.67;;;14.00;99.90;;;;;;5047513;28;20475;-68
2021/05/16 08:41:56;;;;;;;4.77;2.67;;;14.00;99.90;;;;;;5050291;28;20578;-68
2021/05/16 08:44:41;;;;;;;9.97;2.90;;;13.90;99.90;;;;;;5050880;28;20971;-68
2021/05/16 08:47:28;;;;;;;8.27;2.30;;;13.80;99.90;;;;;;5039491;28;20498;-69
2021/05/16 08:50:16;;;;;;;6.50;2.23;;;13.60;99.90;;;;;;5049712;28;20995;-68
2021/05/16 08:53:01;;;;;;;5.80;2.07;;;13.60;99.90;;;;;;5047336;28;20455;-68
2021/05/16 08:55:46;;;;;;;7.13;2.70;;;13.50;99.90;;;;;;5049050;28;20840;-68
2021/05/16 08:58:32;;;;;;;5.93;2.37;;;13.60;99.90;;;;;;5040336;28;20446;-68
2021/05/16 09:01:21;;;;;;;11.97;3.70;;;13.50;99.90;;;;;;5048662;28;20495;-69
2021/05/16 09:04:22;;;;;;;5.27;2.07;;;13.60;99.90;;;;;;5068604;22;20492;-69
2021/05/16 09:07:07;;;;;;;10.33;2.90;;;13.50;99.90;;;;;;5037200;28;20466;-70
2021/05/16 09:09:52;;;;;;;3.97;2.47;;;13.50;99.90;;;;;;5031670;28;20453;-70
2021/05/16 09:12:39;;;;;;;8.97;2.13;;;13.50;99.90;;;;;;5027396;28;20455;-72
2021/05/16 09:15:24;;;;;;;11.50;2.40;;;13.60;99.90;;;;;;5033818;28;20467;-70
2021/05/16 09:18:10;;;;;;;9.70;3.60;;;13.60;99.90;;;;;;5028382;28;20444;-68
2021/05/16 09:20:55;;;;;;;6.57;1.83;;;13.70;99.90;;;;;;5028104;28;20543;-70
2021/05/16 09:23:40;;;;;;;8.03;1.93;;;13.80;99.90;;;;;;5032549;28;20472;-69
2021/05/16 09:26:26;;;;;;;9.10;1.87;;;13.90;99.90;;;;;;5031955;28;20514;-69
2021/05/16 09:29:22;;;;;;;9.73;2.80;;;14.10;99.90;;;;;;5046271;28;20990;-70
2021/05/16 09:32:08;;;;;;;6.07;2.30;;;14.30;99.90;;;;;;5046444;28;20466;-70
2021/05/16 09:34:54;;;;;;;8.57;2.67;;;14.50;99.90;;;;;;5028661;28;20443;-69
2021/05/16 09:37:55;;;;;;;6.00;2.13;;;14.60;99.90;;;;;;5041570;28;20456;-70
2021/05/16 09:40:44;;;;;;;5.53;2.10;;;14.50;99.90;;;;;;5037895;28;20991;-70
2021/05/16 09:43:30;;;;;;;5.03;1.90;;;14.40;99.90;;;;;;5029673;28;20488;-70
2021/05/16 09:46:15;;;;;;;16.77;2.13;;;14.30;99.90;;;;;;5039251;28;20455;-69
2021/05/16 09:49:01;;;;;;;10.97;2.50;;;14.30;99.90;;;;;;5028965;28;20526;-70
2021/05/16 09:51:46;;;;;;;5.77;2.20;;;14.20;99.90;;;;;;5035669;28;20448;-69
2021/05/16 09:54:32;;;;;;;9.10;2.10;;;14.30;99.90;;;;;;5034594;28;20502;-70
2021/05/16 09:57:18;;;;;;;10.03;3.10;;;14.60;99.90;;;;;;5037007;28;20520;-70
2021/05/16 10:00:06;;;;;;;14.90;2.43;;;14.80;99.90;;;;;;5036694;28;20398;-69
2021/05/16 10:02:51;;;;;;;7.40;2.00;;;15.10;99.90;;;;;;5036423;28;20523;-70
2021/05/16 10:05:37;;;;;;;8.70;2.70;;;15.40;99.90;;;;;;5032231;28;20527;-69
2021/05/16 10:08:22;;;;;;;5.17;1.87;;;15.50;99.90;;;;;;5030229;28;20462;-70
2021/05/16 10:11:07;;;;;;;6.70;2.00;;;15.40;99.90;;;;;;5031640;28;21028;-69
2021/05/16 10:13:59;;;;;;;10.10;2.00;;;15.20;99.90;;;;;;5032737;28;20891;-69
2021/05/16 10:16:46;;;;;;;16.90;2.73;;;15.00;99.90;;;;;;5032829;28;21309;-70
2021/05/16 10:19:34;;;;;;;6.30;2.63;;;14.70;99.90;;;;;;5026469;28;20508;-70
2021/05/16 10:22:20;;;;;;;12.10;3.43;;;14.50;99.90;;;;;;5033477;28;20988;-70
2021/05/16 10:25:07;;;;;;;13.90;4.07;;;14.20;99.90;;;;;;5036247;28;20553;-69
2021/05/16 10:27:52;;;;;;;7.63;3.63;;;13.70;99.90;;;;;;5036015;28;20443;-70
2021/05/16 10:30:38;;;;;;;14.83;2.87;;;13.40;99.90;;;;;;5036973;28;20490;-69
2021/05/16 10:33:33;;;;;;;13.13;2.47;;;13.30;99.90;;;;;;5042248;28;20439;-70
2021/05/16 10:36:43;;;;;;;9.63;2.60;;;13.10;99.90;;;;;;5039192;28;20691;-69
2021/05/16 10:39:54;;;;;;;10.10;2.20;;;13.00;99.90;;;;;;5014535;28;20431;-70
2021/05/16 10:42:41;;;;;;;9.63;2.33;;;13.20;99.90;;;;;;5036382;28;20500;-69
2021/05/16 10:45:35;;;;;;;9.03;2.37;;;13.30;99.90;;;;;;5033619;28;20497;-70
2021/05/16 10:48:29;;;;;;;8.53;2.30;;;13.70;99.90;;;;;;5044766;28;20475;-70
2021/05/16 10:51:27;;;;;;;13.80;3.50;;;14.10;99.90;;;;;;5043172;28;20502;-70
2021/05/16 10:54:28;;;;;;;6.37;2.50;;;14.50;99.90;;;;;;5034650;28;20996;-70
2021/05/16 10:57:15;;;;;;;7.47;2.33;;;14.90;99.90;;;;;;5040323;28;20432;-69
2021/05/16 11:00:25;;;;;;;9.20;2.33;;;15.40;99.90;;;;;;5040890;28;20474;-70
2021/05/16 11:03:12;;;;;;;10.93;2.57;;;15.70;99.90;;;;;;5041996;28;20439;-70
2021/05/16 11:05:59;;;;;;;7.47;2.60;;;15.80;99.90;;;;;;5039906;28;20419;-70
2021/05/16 11:09:13;;;;;;;12.63;3.00;;;15.90;99.90;;;;;;5033166;28;20419;-71
2021/05/16 11:11:59;;;;;;;9.27;2.00;;;15.60;99.90;;;;;;5032731;28;20431;-69
2021/05/16 11:14:44;;;;;;;8.17;1.80;;;15.50;99.90;;;;;;5027703;28;20515;-69
2021/05/16 11:17:29;;;;;;;8.80;1.50;;;15.70;99.90;;;;;;5030377;28;20849;-70
2021/05/16 11:20:14;;;;;;;5.17;1.30;;;15.80;99.90;;;;;;5029769;28;20430;-70
2021/05/16 11:23:00;;;;;;;2.60;1.20;;;16.00;99.90;;;;;;5036449;28;20509;-70
2021/05/16 11:25:45;;;;;;;6.80;2.00;;;16.30;99.90;;;;;;5038248;28;20486;-69
2021/05/16 11:28:33;;;;;;;6.63;1.53;;;16.50;99.90;;;;;;5013507;28;20593;-70
2021/05/16 11:31:21;;;;;;;7.33;2.53;;;16.60;99.90;;;;;;5040288;28;20452;-70
2021/05/16 11:34:06;;;;;;;7.93;1.90;;;16.70;99.90;;;;;;5032051;28;20522;-70
2021/05/16 11:36:51;;;;;;;6.60;1.90;;;16.80;99.90;;;;;;5037936;28;20940;-69
2021/05/16 11:39:37;;;;;;;7.83;2.80;;;16.90;99.90;;;;;;5029645;28;20817;-69
2021/05/16 11:42:33;;;;;;;6.83;1.53;;;17.00;99.90;;;;;;5034908;28;20798;-70
2021/05/16 11:45:18;;;;;;;7.00;2.30;;;17.00;99.90;;;;;;5038185;28;21047;-72
2021/05/16 11:48:04;;;;;;;9.57;2.17;;;17.10;99.90;;;;;;5037001;28;20485;-71
2021/05/16 11:50:50;;;;;;;5.23;2.10;;;17.20;99.90;;;;;;5037311;28;20481;-71
2021/05/16 11:53:36;;;;;;;6.87;1.97;;;17.40;99.90;;;;;;5030669;28;20494;-71
2021/05/16 11:56:24;;;;;;;9.67;1.97;;;17.60;99.90;;;;;;5032328;28;20451;-72
2021/05/16 11:59:09;;;;;;;8.53;1.87;;;17.70;99.90;;;;;;5040430;28;20460;-70
2021/05/16 12:01:55;;;;;;;7.10;1.80;;;17.50;99.90;;;;;;5026353;28;20473;-69
2021/05/16 12:04:40;;;;;;;10.50;2.43;;;17.30;99.90;;;;;;5036910;28;20497;-69
2021/05/16 12:07:29;;;;;;;9.40;1.80;;;17.20;99.90;;;;;;5030944;28;20476;-69
2021/05/16 12:10:19;;;;;;;5.07;1.30;;;17.20;99.90;;;;;;5048056;28;20479;-69
2021/05/16 12:13:19;;;;;;;9.73;2.50;;;17.40;99.90;;;;;;5044197;28;20790;-69
2021/05/16 12:16:19;;;;;;;6.33;1.77;;;17.70;99.90;;;;;;5034232;28;20449;-69
2021/05/16 12:19:05;;;;;;;10.10;2.20;;;18.00;99.90;;;;;;5030997;28;20562;-69
2021/05/16 12:21:51;;;;;;;8.97;1.93;;;18.20;99.90;;;;;;5038469;28;20451;-69
2021/05/16 12:24:37;;;;;;;5.50;1.80;;;18.20;99.90;;;;;;5045817;28;20444;-69
2021/05/16 12:27:24;;;;;;;10.37;4.03;;;18.10;99.90;;;;;;5029938;28;20435;-70
2021/05/16 12:30:12;;;;;;;8.73;1.60;;;18.10;99.90;;;;;;5041322;28;20406;-70
2021/05/16 12:32:58;;;;;;;7.90;2.03;;;18.20;99.90;;;;;;5033444;28;20494;-70
2021/05/16 12:35:45;;;;;;;7.67;1.90;;;18.10;93.80;;;;;;5031444;28;20440;-70
2021/05/16 12:38:41;;;;;;;15.07;3.80;;;17.90;95.50;;;;;;5039831;28;20470;-70
2021/05/16 12:41:28;;;;;;;8.07;1.77;;;17.60;96.10;;;;;;5031746;28;20412;-70
2021/05/16 12:44:23;;;;;;;11.77;2.00;;;17.50;98.20;;;;;;5034779;28;20459;-70
2021/05/16 12:47:20;;;;;;;10.03;2.13;;;17.30;99.00;;;;;;5027994;28;20499;-71
2021/05/16 12:50:08;;;;;;;13.30;2.13;;;17.20;99.90;;;;;;5026911;28;20431;-70
2021/05/16 12:52:54;;;;;;;5.57;1.83;;;17.10;97.30;;;;;;5032354;28;21019;-70
2021/05/16 12:55:39;;;;;;;11.00;1.67;;;17.10;96.70;;;;;;5035205;28;20526;-70
2021/05/16 12:58:32;;;;;;;6.30;1.80;;;17.00;96.70;;;;;;5032361;28;20446;-70
2021/05/16 13:01:21;;;;;;;10.23;1.77;;;17.00;99.80;;;;;;5038560;28;20976;-70
2021/05/16 13:04:10;;;;;;;10.00;2.00;;;17.00;99.90;;;;;;5037226;28;20555;-71
2021/05/16 13:06:56;;;;;;;8.13;2.10;;;17.00;94.10;;;;;;5036876;28;21015;-70
2021/05/16 13:09:41;;;;;;;5.00;1.40;;;16.90;94.00;;;;;;5034004;28;20495;-70
2021/05/16 13:12:27;;;;;;;6.60;1.40;;;16.90;94.70;;;;;;5031088;28;20489;-70
2021/05/16 13:15:12;;;;;;;4.80;1.43;;;16.80;94.60;;;;;;5035478;28;20568;-70
2021/05/16 13:17:57;;;;;;;5.30;1.27;;;16.80;93.10;;;;;;5042527;28;21000;-70
2021/05/16 13:20:43;;;;;;;5.87;1.77;;;16.70;93.30;;;;;;5025893;28;20436;-70
2021/05/16 13:23:29;;;;;;;9.17;2.97;;;16.70;94.30;;;;;;5032585;28;20470;-70
2021/05/16 13:26:15;;;;;;;5.63;1.60;;;16.80;98.30;;;;;;5038594;28;20480;-70
2021/05/16 13:29:00;;;;;;;6.27;1.60;;;17.00;96.20;;;;;;5029182;28;20467;-70
2021/05/16 13:31:45;;;;;;;5.50;1.40;;;17.00;97.60;;;;;;5039235;28;20501;-70
2021/05/16 13:34:30;;;;;;;5.50;1.70;;;17.20;97.80;;;;;;5035469;28;21010;-70
2021/05/16 13:37:16;;;;;;;7.43;1.50;;;17.40;98.00;;;;;;5028570;28;20472;-69
2021/05/16 13:40:00;;;;;;;7.47;1.57;;;17.70;99.30;;;;;;5043280;28;20443;-69
2021/05/16 13:42:46;;;;;;;9.30;1.87;;;18.10;93.80;;;;;;5045457;28;20405;-69
2021/05/16 13:45:31;;;;;;;4.43;1.20;;;18.50;81.70;;;;;;5031378;28;20540;-69
2021/05/16 13:48:16;;;;;;;5.80;1.50;;;18.80;79.20;;;;;;5039076;28;20815;-69
2021/05/16 13:51:01;;;;;;;7.70;2.07;;;19.20;79.50;;;;;;5031270;28;20453;-69
2021/05/16 13:53:47;;;;;;;6.07;2.10;;;19.40;69.30;;;;;;5033806;28;20518;-69
2021/05/16 13:56:32;;;;;;;6.67;1.50;;;19.40;68.80;;;;;;5011380;28;20384;-69
2021/05/16 13:59:17;;;;;;;12.60;4.70;;;19.50;69.40;;;;;;5035639;28;20443;-69
2021/05/16 14:02:02;;;;;;;6.80;1.53;;;19.40;59.40;;;;;;5037767;28;20418;-69
2021/05/16 14:04:47;;;;;;;8.50;2.00;;;19.20;61.00;;;;;;5035642;28;20982;-69
2021/05/16 14:07:32;;;;;;;4.60;1.70;;;19.00;58.80;;;;;;5036431;28;20558;-69
2021/05/16 14:10:19;;;;;;;5.00;1.47;;;19.10;61.30;;;;;;5044771;28;20459;-69
2021/05/16 14:13:07;;;;;;;7.10;2.00;;;19.10;61.30;;;;;;5047380;28;20550;-69
2021/05/16 14:15:52;;;;;;;7.90;1.50;;;19.20;66.90;;;;;;5037488;28;20452;-69
2021/05/16 14:18:37;;;;;;;4.70;1.37;;;19.00;60.20;;;;;;5033292;28;20390;-69
2021/05/16 14:21:23;;;;;;;6.93;1.90;;;18.80;59.80;;;;;;5035691;28;20882;-69
2021/05/16 14:24:09;;;;;;;6.10;1.23;;;18.60;63.80;;;;;;5026052;28;20472;-69